sensor_id;sensor_type;location;lat;lon;timestamp;temperature;humidity
68189;DHT22;66299;47.514;19.218;2024-03-23T00:54:37;5.42;94.25
68189;DHT22;66299;47.514;19.218;2024-03-23T00:57:07;5.36;94.21
68189;DHT22;66299;47.514;19.218;2024-03-23T00:59:34;5.36;94.34
68189;DHT22;66299;47.514;19.218;2024-03-23T01:02:01;5.31;94.46
68189;DHT22;66299;47.514;19.218;2024-03-23T01:04:28;5.38;94.38
68189;DHT22;66299;47.514;19.218;2024-03-23T01:06:55;5.36;94.34
68189;DHT22;66299;47.514;19.218;2024-03-23T01:09:23;5.42;94.28
68189;DHT22;66299;47.514;19.218;2024-03-23T01:11:51;5.43;94.25
68189;DHT22;66299;47.514;19.218;2024-03-23T01:14:18;5.48;94.05
68189;DHT22;66299;47.514;19.218;2024-03-23T01:16:45;5.48;94.06
68189;DHT22;66299;47.514;19.218;2024-03-23T01:19:13;5.53;93.90
68189;DHT22;66299;47.514;19.218;2024-03-23T01:21:39;5.58;93.80
68189;DHT22;66299;47.514;19.218;2024-03-23T01:24:07;5.65;93.78
68189;DHT22;66299;47.514;19.218;2024-03-23T01:26:35;5.69;93.56
68189;DHT22;66299;47.514;19.218;2024-03-23T01:29:04;5.65;93.55
68189;DHT22;66299;47.514;19.218;2024-03-23T01:31:31;5.63;93.63
68189;DHT22;66299;47.514;19.218;2024-03-23T01:33:58;5.60;93.52
68189;DHT22;66299;47.514;19.218;2024-03-23T01:36:26;5.59;93.39
68189;DHT22;66299;47.514;19.218;2024-03-23T01:38:53;5.56;93.48
68189;DHT22;66299;47.514;19.218;2024-03-23T01:41:20;5.52;93.61
68189;DHT22;66299;47.514;19.218;2024-03-23T01:43:48;5.45;93.74
68189;DHT22;66299;47.514;19.218;2024-03-23T01:46:17;5.39;93.97
68189;DHT22;66299;47.514;19.218;2024-03-23T01:48:45;5.32;94.23
68189;DHT22;66299;47.514;19.218;2024-03-23T01:51:12;5.34;93.84
68189;DHT22;66299;47.514;19.218;2024-03-23T01:53:40;5.25;94.10
68189;DHT22;66299;47.514;19.218;2024-03-23T01:56:06;5.22;94.31
68189;DHT22;66299;47.514;19.218;2024-03-23T01:58:34;5.12;94.36
68189;DHT22;66299;47.514;19.218;2024-03-23T02:01:00;5.04;94.55
68189;DHT22;66299;47.514;19.218;2024-03-23T02:03:29;4.98;94.78
68189;DHT22;66299;47.514;19.218;2024-03-23T02:05:56;4.88;95.09
68189;DHT22;66299;47.514;19.218;2024-03-23T02:08:24;4.84;95.57
68189;DHT22;66299;47.514;19.218;2024-03-23T02:10:50;4.79;95.95
68189;DHT22;66299;47.514;19.218;2024-03-23T02:13:18;4.83;96.20
68189;DHT22;66299;47.514;19.218;2024-03-23T02:15:45;4.83;96.06
68189;DHT22;66299;47.514;19.218;2024-03-23T02:18:14;4.90;95.98
68189;DHT22;66299;47.514;19.218;2024-03-23T02:20:41;4.91;95.61
68189;DHT22;66299;47.514;19.218;2024-03-23T02:23:14;4.91;95.75
68189;DHT22;66299;47.514;19.218;2024-03-23T02:25:40;4.88;96.07
68189;DHT22;66299;47.514;19.218;2024-03-23T02:28:09;4.84;96.10
68189;DHT22;66299;47.514;19.218;2024-03-23T02:30:37;4.79;96.23
68189;DHT22;66299;47.514;19.218;2024-03-23T02:33:05;4.80;96.39
68189;DHT22;66299;47.514;19.218;2024-03-23T02:35:31;4.79;96.08
68189;DHT22;66299;47.514;19.218;2024-03-23T02:38:01;4.85;96.37
68189;DHT22;66299;47.514;19.218;2024-03-23T02:40:30;4.81;96.46
68189;DHT22;66299;47.514;19.218;2024-03-23T02:42:58;4.81;96.53
68189;DHT22;66299;47.514;19.218;2024-03-23T02:45:25;4.80;96.65
68189;DHT22;66299;47.514;19.218;2024-03-23T02:47:52;4.80;96.60
68189;DHT22;66299;47.514;19.218;2024-03-23T02:50:18;4.81;96.51
68189;DHT22;66299;47.514;19.218;2024-03-23T02:52:46;4.71;96.58
68189;DHT22;66299;47.514;19.218;2024-03-23T02:55:13;4.76;96.81
68189;DHT22;66299;47.514;19.218;2024-03-23T02:57:44;4.70;96.78
68189;DHT22;66299;47.514;19.218;2024-03-23T03:00:11;4.67;96.95
68189;DHT22;66299;47.514;19.218;2024-03-23T03:02:39;4.64;97.20
68189;DHT22;66299;47.514;19.218;2024-03-23T03:05:06;4.63;97.25
68189;DHT22;66299;47.514;19.218;2024-03-23T03:07:34;4.70;97.21
68189;DHT22;66299;47.514;19.218;2024-03-23T03:10:01;4.69;96.87
68189;DHT22;66299;47.514;19.218;2024-03-23T03:12:30;4.62;97.02
68189;DHT22;66299;47.514;19.218;2024-03-23T03:15:00;4.52;97.12
68189;DHT22;66299;47.514;19.218;2024-03-23T03:17:27;4.48;97.22
68189;DHT22;66299;47.514;19.218;2024-03-23T03:19:53;4.39;97.43
68189;DHT22;66299;47.514;19.218;2024-03-23T03:22:22;4.41;97.65
68189;DHT22;66299;47.514;19.218;2024-03-23T03:24:50;4.46;97.63
68189;DHT22;66299;47.514;19.218;2024-03-23T03:27:17;4.42;97.73
68189;DHT22;66299;47.514;19.218;2024-03-23T03:29:43;4.52;98.10
68189;DHT22;66299;47.514;19.218;2024-03-23T03:32:15;4.56;97.91
68189;DHT22;66299;47.514;19.218;2024-03-23T03:34:42;4.52;97.99
68189;DHT22;66299;47.514;19.218;2024-03-23T03:37:11;4.54;97.88
68189;DHT22;66299;47.514;19.218;2024-03-23T03:39:37;4.54;98.01
68189;DHT22;66299;47.514;19.218;2024-03-23T03:42:05;4.54;98.03
68189;DHT22;66299;47.514;19.218;2024-03-23T03:44:33;4.54;98.03
68189;DHT22;66299;47.514;19.218;2024-03-23T03:47:02;4.56;98.08
68189;DHT22;66299;47.514;19.218;2024-03-23T03:49:30;4.56;98.02
68189;DHT22;66299;47.514;19.218;2024-03-23T03:51:58;4.54;98.12
68189;DHT22;66299;47.514;19.218;2024-03-23T03:54:24;4.56;97.90
68189;DHT22;66299;47.514;19.218;2024-03-23T03:56:52;4.50;97.84
68189;DHT22;66299;47.514;19.218;2024-03-23T03:59:18;4.50;98.00
68189;DHT22;66299;47.514;19.218;2024-03-23T04:01:46;4.45;97.96
68189;DHT22;66299;47.514;19.218;2024-03-23T04:04:13;4.49;98.10
68189;DHT22;66299;47.514;19.218;2024-03-23T04:06:44;4.49;98.21
68189;DHT22;66299;47.514;19.218;2024-03-23T04:09:10;4.46;98.25
68189;DHT22;66299;47.514;19.218;2024-03-23T04:11:38;4.48;98.22
68189;DHT22;66299;47.514;19.218;2024-03-23T04:14:04;4.49;98.07
68189;DHT22;66299;47.514;19.218;2024-03-23T04:16:34;4.52;98.12
68189;DHT22;66299;47.514;19.218;2024-03-23T04:19:01;4.53;98.17
68189;DHT22;66299;47.514;19.218;2024-03-23T04:21:30;4.59;98.09
68189;DHT22;66299;47.514;19.218;2024-03-23T04:23:57;4.64;98.15
68189;DHT22;66299;47.514;19.218;2024-03-23T04:26:25;4.60;98.21
68189;DHT22;66299;47.514;19.218;2024-03-23T04:28:51;4.64;98.22
68189;DHT22;66299;47.514;19.218;2024-03-23T04:31:20;4.70;98.38
68189;DHT22;66299;47.514;19.218;2024-03-23T04:33:47;4.79;98.27
68189;DHT22;66299;47.514;19.218;2024-03-23T04:36:15;4.83;98.30
68189;DHT22;66299;47.514;19.218;2024-03-23T04:38:41;4.94;98.00
68189;DHT22;66299;47.514;19.218;2024-03-23T04:41:11;4.97;97.94
68189;DHT22;66299;47.514;19.218;2024-03-23T04:43:38;4.98;97.85
68189;DHT22;66299;47.514;19.218;2024-03-23T04:46:06;5.15;97.46
68189;DHT22;66299;47.514;19.218;2024-03-23T04:48:33;5.15;97.56
68189;DHT22;66299;47.514;19.218;2024-03-23T04:51:01;5.17;97.54
68189;DHT22;66299;47.514;19.218;2024-03-23T04:53:28;5.21;97.39
68189;DHT22;66299;47.514;19.218;2024-03-23T04:55:56;5.22;97.41
68189;DHT22;66299;47.514;19.218;2024-03-23T04:58:28;5.22;97.41
68189;DHT22;66299;47.514;19.218;2024-03-23T05:00:55;5.28;97.30
68189;DHT22;66299;47.514;19.218;2024-03-23T05:03:22;5.34;96.77
68189;DHT22;66299;47.514;19.218;2024-03-23T05:05:50;5.32;96.42
68189;DHT22;66299;47.514;19.218;2024-03-23T05:08:17;5.43;96.28
68189;DHT22;66299;47.514;19.218;2024-03-23T05:10:44;5.49;96.75
68189;DHT22;66299;47.514;19.218;2024-03-23T05:13:12;5.49;97.06
68189;DHT22;66299;47.514;19.218;2024-03-23T05:15:39;5.52;97.02
68189;DHT22;66299;47.514;19.218;2024-03-23T05:18:07;5.56;96.90
68189;DHT22;66299;47.514;19.218;2024-03-23T05:20:34;5.65;97.09
68189;DHT22;66299;47.514;19.218;2024-03-23T05:23:01;5.69;97.11
68189;DHT22;66299;47.514;19.218;2024-03-23T05:25:28;5.80;97.04
68189;DHT22;66299;47.514;19.218;2024-03-23T05:27:56;5.86;96.89
68189;DHT22;66299;47.514;19.218;2024-03-23T05:30:23;5.94;96.76
68189;DHT22;66299;47.514;19.218;2024-03-23T05:32:55;6.03;96.66
68189;DHT22;66299;47.514;19.218;2024-03-23T05:35:22;6.16;96.44
68189;DHT22;66299;47.514;19.218;2024-03-23T05:37:52;6.27;96.29
68189;DHT22;66299;47.514;19.218;2024-03-23T05:40:18;6.41;96.16
68189;DHT22;66299;47.514;19.218;2024-03-23T05:42:46;6.48;96.02
68189;DHT22;66299;47.514;19.218;2024-03-23T05:45:12;6.61;95.95
68189;DHT22;66299;47.514;19.218;2024-03-23T05:47:40;6.73;95.76
68189;DHT22;66299;47.514;19.218;2024-03-23T05:50:08;6.82;95.53
68189;DHT22;66299;47.514;19.218;2024-03-23T05:52:38;6.87;95.44
68189;DHT22;66299;47.514;19.218;2024-03-23T05:55:05;6.97;95.59
68189;DHT22;66299;47.514;19.218;2024-03-23T05:57:33;7.00;95.49
68189;DHT22;66299;47.514;19.218;2024-03-23T05:59:59;7.10;95.13
68189;DHT22;66299;47.514;19.218;2024-03-23T06:02:27;7.20;94.96
68189;DHT22;66299;47.514;19.218;2024-03-23T06:04:55;7.27;95.00
68189;DHT22;66299;47.514;19.218;2024-03-23T06:07:25;7.34;94.99
68189;DHT22;66299;47.514;19.218;2024-03-23T06:09:51;7.44;94.70
68189;DHT22;66299;47.514;19.218;2024-03-23T06:12:19;7.56;95.03
68189;DHT22;66299;47.514;19.218;2024-03-23T06:14:49;7.68;94.67
68189;DHT22;66299;47.514;19.218;2024-03-23T06:17:16;7.79;95.01
68189;DHT22;66299;47.514;19.218;2024-03-23T06:19:43;7.94;95.14
68189;DHT22;66299;47.514;19.218;2024-03-23T06:22:11;8.02;94.76
68189;DHT22;66299;47.514;19.218;2024-03-23T06:24:40;8.10;94.64
68189;DHT22;66299;47.514;19.218;2024-03-23T06:27:07;8.16;94.97
68189;DHT22;66299;47.514;19.218;2024-03-23T06:29:33;8.21;94.80
68189;DHT22;66299;47.514;19.218;2024-03-23T06:32:02;8.31;94.81
68189;DHT22;66299;47.514;19.218;2024-03-23T06:34:29;8.45;94.29
68189;DHT22;66299;47.514;19.218;2024-03-23T06:36:57;8.59;93.82
68189;DHT22;66299;47.514;19.218;2024-03-23T06:39:23;8.92;93.42
68189;DHT22;66299;47.514;19.218;2024-03-23T06:41:55;9.23;92.41
68189;DHT22;66299;47.514;19.218;2024-03-23T06:44:22;9.52;91.61
68189;DHT22;66299;47.514;19.218;2024-03-23T06:46:50;9.77;90.75
68189;DHT22;66299;47.514;19.218;2024-03-23T06:49:16;10.01;90.17
68189;DHT22;66299;47.514;19.218;2024-03-23T06:51:45;10.12;89.72
68189;DHT22;66299;47.514;19.218;2024-03-23T06:54:11;10.15;88.86
68189;DHT22;66299;47.514;19.218;2024-03-23T06:56:40;10.13;89.09
68189;DHT22;66299;47.514;19.218;2024-03-23T06:59:07;10.09;89.20
68189;DHT22;66299;47.514;19.218;2024-03-23T07:01:35;10.05;88.71
68189;DHT22;66299;47.514;19.218;2024-03-23T07:04:01;10.15;88.48
68189;DHT22;66299;47.514;19.218;2024-03-23T07:06:29;10.20;88.27
68189;DHT22;66299;47.514;19.218;2024-03-23T07:08:56;10.20;87.90
68189;DHT22;66299;47.514;19.218;2024-03-23T07:11:24;10.20;88.06
68189;DHT22;66299;47.514;19.218;2024-03-23T07:13:53;10.26;87.98
68189;DHT22;66299;47.514;19.218;2024-03-23T07:16:23;10.28;88.17
68189;DHT22;66299;47.514;19.218;2024-03-23T07:18:50;10.34;87.43
68189;DHT22;66299;47.514;19.218;2024-03-23T07:21:19;10.36;87.53
68189;DHT22;66299;47.514;19.218;2024-03-23T07:23:46;10.40;86.98
68189;DHT22;66299;47.514;19.218;2024-03-23T07:26:14;10.52;86.62
68189;DHT22;66299;47.514;19.218;2024-03-23T07:28:41;10.73;87.03
68189;DHT22;66299;47.514;19.218;2024-03-23T07:31:11;11.07;86.33
68189;DHT22;66299;47.514;19.218;2024-03-23T07:33:44;11.38;85.16
68189;DHT22;66299;47.514;19.218;2024-03-23T07:36:12;11.42;84.21
68189;DHT22;66299;47.514;19.218;2024-03-23T07:38:40;11.50;84.32
68189;DHT22;66299;47.514;19.218;2024-03-23T07:41:09;11.43;83.98
68189;DHT22;66299;47.514;19.218;2024-03-23T07:43:36;11.63;83.97
68189;DHT22;66299;47.514;19.218;2024-03-23T07:46:04;11.76;83.45
68189;DHT22;66299;47.514;19.218;2024-03-23T07:48:31;11.95;83.02
68189;DHT22;66299;47.514;19.218;2024-03-23T07:51:02;12.14;82.63
68189;DHT22;66299;47.514;19.218;2024-03-23T07:53:31;12.22;82.16
68189;DHT22;66299;47.514;19.218;2024-03-23T07:56:01;12.53;81.18
68189;DHT22;66299;47.514;19.218;2024-03-23T07:58:28;12.69;81.39
68189;DHT22;66299;47.514;19.218;2024-03-23T08:01:03;12.93;80.39
68189;DHT22;66299;47.514;19.218;2024-03-23T08:03:30;13.23;79.46
68189;DHT22;66299;47.514;19.218;2024-03-23T08:05:57;13.45;79.11
68189;DHT22;66299;47.514;19.218;2024-03-23T08:08:25;13.58;77.42
68189;DHT22;66299;47.514;19.218;2024-03-23T08:10:53;13.68;77.02
68189;DHT22;66299;47.514;19.218;2024-03-23T08:13:19;13.75;77.04
68189;DHT22;66299;47.514;19.218;2024-03-23T08:15:48;13.96;76.95
68189;DHT22;66299;47.514;19.218;2024-03-23T08:18:14;14.05;76.11
68189;DHT22;66299;47.514;19.218;2024-03-23T08:20:42;14.24;75.78
68189;DHT22;66299;47.514;19.218;2024-03-23T08:23:09;14.47;75.40
68189;DHT22;66299;47.514;19.218;2024-03-23T08:25:37;14.77;74.26
68189;DHT22;66299;47.514;19.218;2024-03-23T08:28:04;14.92;74.11
68189;DHT22;66299;47.514;19.218;2024-03-23T08:30:35;15.16;73.46
68189;DHT22;66299;47.514;19.218;2024-03-23T08:33:01;15.18;73.08
68189;DHT22;66299;47.514;19.218;2024-03-23T08:35:28;15.55;73.12
68189;DHT22;66299;47.514;19.218;2024-03-23T08:37:55;15.37;72.47
68189;DHT22;66299;47.514;19.218;2024-03-23T08:40:23;15.53;72.31
68189;DHT22;66299;47.514;19.218;2024-03-23T08:42:51;15.55;72.41
68189;DHT22;66299;47.514;19.218;2024-03-23T08:45:18;15.61;72.10
68189;DHT22;66299;47.514;19.218;2024-03-23T08:47:46;15.78;71.93
68189;DHT22;66299;47.514;19.218;2024-03-23T08:50:13;15.75;71.16
68189;DHT22;66299;47.514;19.218;2024-03-23T08:52:41;15.67;70.57
68189;DHT22;66299;47.514;19.218;2024-03-23T08:55:08;15.71;70.42
68189;DHT22;66299;47.514;19.218;2024-03-23T08:57:35;15.75;70.83
68189;DHT22;66299;47.514;19.218;2024-03-23T09:00:10;15.98;70.11
68189;DHT22;66299;47.514;19.218;2024-03-23T09:02:38;15.90;70.39
68189;DHT22;66299;47.514;19.218;2024-03-23T09:05:05;16.13;70.45
68189;DHT22;66299;47.514;19.218;2024-03-23T09:07:33;16.22;69.78
68189;DHT22;66299;47.514;19.218;2024-03-23T09:09:59;16.09;69.75
68189;DHT22;66299;47.514;19.218;2024-03-23T09:12:27;16.02;70.41
68189;DHT22;66299;47.514;19.218;2024-03-23T09:14:53;16.04;69.69
68189;DHT22;66299;47.514;19.218;2024-03-23T09:17:22;15.91;70.03
68189;DHT22;66299;47.514;19.218;2024-03-23T09:19:48;15.90;71.01
68189;DHT22;66299;47.514;19.218;2024-03-23T09:22:15;16.02;70.44
68189;DHT22;66299;47.514;19.218;2024-03-23T09:24:42;16.04;69.85
68189;DHT22;66299;47.514;19.218;2024-03-23T09:27:09;16.02;70.70
68189;DHT22;66299;47.514;19.218;2024-03-23T09:29:35;16.22;70.57
68189;DHT22;66299;47.514;19.218;2024-03-23T09:32:03;16.56;69.80
68189;DHT22;66299;47.514;19.218;2024-03-23T09:34:34;16.66;70.29
68189;DHT22;66299;47.514;19.218;2024-03-23T09:37:01;16.52;70.25
68189;DHT22;66299;47.514;19.218;2024-03-23T09:39:27;16.69;70.60
68189;DHT22;66299;47.514;19.218;2024-03-23T09:41:56;16.60;70.45
68189;DHT22;66299;47.514;19.218;2024-03-23T09:44:24;16.70;70.42
68189;DHT22;66299;47.514;19.218;2024-03-23T09:46:55;16.67;70.72
68189;DHT22;66299;47.514;19.218;2024-03-23T09:49:22;16.70;70.91
68189;DHT22;66299;47.514;19.218;2024-03-23T09:51:51;16.71;70.79
68189;DHT22;66299;47.514;19.218;2024-03-23T09:54:18;16.92;70.25
68189;DHT22;66299;47.514;19.218;2024-03-23T09:56:46;17.15;70.13
68189;DHT22;66299;47.514;19.218;2024-03-23T09:59:12;17.46;68.36
68189;DHT22;66299;47.514;19.218;2024-03-23T10:01:40;17.89;67.10
68189;DHT22;66299;47.514;19.218;2024-03-23T10:04:06;18.14;65.68
68189;DHT22;66299;47.514;19.218;2024-03-23T10:06:33;18.72;66.12
68189;DHT22;66299;47.514;19.218;2024-03-23T10:09:16;19.11;63.92
68189;DHT22;66299;47.514;19.218;2024-03-23T10:11:44;19.21;63.06
68189;DHT22;66299;47.514;19.218;2024-03-23T10:14:29;19.11;62.38
68189;DHT22;66299;47.514;19.218;2024-03-23T10:16:59;19.09;63.03
68189;DHT22;66299;47.514;19.218;2024-03-23T10:19:37;19.58;62.64
68189;DHT22;66299;47.514;19.218;2024-03-23T10:22:06;19.86;61.42
68189;DHT22;66299;47.514;19.218;2024-03-23T10:24:34;20.16;60.76
68189;DHT22;66299;47.514;19.218;2024-03-23T10:27:01;20.60;58.97
68189;DHT22;66299;47.514;19.218;2024-03-23T10:29:28;20.67;58.56
68189;DHT22;66299;47.514;19.218;2024-03-23T10:32:08;21.06;56.89
68189;DHT22;66299;47.514;19.218;2024-03-23T10:34:35;20.53;54.83
68189;DHT22;66299;47.514;19.218;2024-03-23T10:37:04;20.78;54.50
68189;DHT22;66299;47.514;19.218;2024-03-23T10:39:34;20.85;55.57
68189;DHT22;66299;47.514;19.218;2024-03-23T10:42:03;20.61;55.35
68189;DHT22;66299;47.514;19.218;2024-03-23T10:44:32;20.34;54.24
68189;DHT22;66299;47.514;19.218;2024-03-23T10:47:02;20.20;55.40
68189;DHT22;66299;47.514;19.218;2024-03-23T10:49:29;20.29;54.43
68189;DHT22;66299;47.514;19.218;2024-03-23T10:51:57;20.47;54.30
68189;DHT22;66299;47.514;19.218;2024-03-23T10:54:24;20.15;55.30
68189;DHT22;66299;47.514;19.218;2024-03-23T10:56:59;20.16;54.65
68189;DHT22;66299;47.514;19.218;2024-03-23T10:59:29;20.20;51.72
68189;DHT22;66299;47.514;19.218;2024-03-23T11:01:57;20.20;50.73
68189;DHT22;66299;47.514;19.218;2024-03-23T11:04:31;20.06;50.41
68189;DHT22;66299;47.514;19.218;2024-03-23T11:06:59;20.15;51.54
68189;DHT22;66299;47.514;19.218;2024-03-23T11:09:38;19.96;52.18
68189;DHT22;66299;47.514;19.218;2024-03-23T11:12:31;19.99;52.80
68189;DHT22;66299;47.514;19.218;2024-03-23T11:15:04;19.89;53.03
68189;DHT22;66299;47.514;19.218;2024-03-23T11:17:32;19.99;54.01
68189;DHT22;66299;47.514;19.218;2024-03-23T11:19:59;20.00;53.44
68189;DHT22;66299;47.514;19.218;2024-03-23T11:22:40;19.96;53.77
68189;DHT22;66299;47.514;19.218;2024-03-23T11:25:17;20.00;54.15
68189;DHT22;66299;47.514;19.218;2024-03-23T11:27:49;20.10;54.26
68189;DHT22;66299;47.514;19.218;2024-03-23T11:30:17;20.23;54.67
68189;DHT22;66299;47.514;19.218;2024-03-23T11:32:46;20.22;54.63
68189;DHT22;66299;47.514;19.218;2024-03-23T11:35:28;20.32;54.90
68189;DHT22;66299;47.514;19.218;2024-03-23T11:38:04;20.22;54.07
68189;DHT22;66299;47.514;19.218;2024-03-23T11:40:31;20.06;53.63
68189;DHT22;66299;47.514;19.218;2024-03-23T11:43:03;20.12;54.12
68189;DHT22;66299;47.514;19.218;2024-03-23T11:45:35;20.41;53.90
68189;DHT22;66299;47.514;19.218;2024-03-23T11:48:06;20.57;53.19
68189;DHT22;66299;47.514;19.218;2024-03-23T11:50:33;20.55;53.37
68189;DHT22;66299;47.514;19.218;2024-03-23T11:53:14;20.48;53.79
68189;DHT22;66299;47.514;19.218;2024-03-23T11:55:42;20.50;53.75
68189;DHT22;66299;47.514;19.218;2024-03-23T11:58:14;20.51;53.26
68189;DHT22;66299;47.514;19.218;2024-03-23T12:00:41;20.81;52.48
68189;DHT22;66299;47.514;19.218;2024-03-23T12:03:08;20.90;52.34
68189;DHT22;66299;47.514;19.218;2024-03-23T12:05:37;21.19;52.15
68189;DHT22;66299;47.514;19.218;2024-03-23T12:08:19;20.98;50.91
68189;DHT22;66299;47.514;19.218;2024-03-23T12:10:48;21.03;51.30
68189;DHT22;66299;47.514;19.218;2024-03-23T12:13:19;20.77;51.35
68189;DHT22;66299;47.514;19.218;2024-03-23T12:15:47;20.67;50.83
68189;DHT22;66299;47.514;19.218;2024-03-23T12:18:17;20.51;50.50
68189;DHT22;66299;47.514;19.218;2024-03-23T12:20:43;20.41;51.66
68189;DHT22;66299;47.514;19.218;2024-03-23T12:23:12;20.48;50.59
68189;DHT22;66299;47.514;19.218;2024-03-23T12:25:39;20.20;51.19
68189;DHT22;66299;47.514;19.218;2024-03-23T12:28:07;20.33;50.53
68189;DHT22;66299;47.514;19.218;2024-03-23T12:30:38;20.10;51.28
68189;DHT22;66299;47.514;19.218;2024-03-23T12:33:06;20.13;50.90
68189;DHT22;66299;47.514;19.218;2024-03-23T12:35:33;20.25;50.11
68189;DHT22;66299;47.514;19.218;2024-03-23T12:38:00;20.16;50.52
68189;DHT22;66299;47.514;19.218;2024-03-23T12:40:27;20.10;50.97
68189;DHT22;66299;47.514;19.218;2024-03-23T12:42:55;20.10;50.96
68189;DHT22;66299;47.514;19.218;2024-03-23T12:45:22;20.04;51.16
68189;DHT22;66299;47.514;19.218;2024-03-23T12:47:51;20.05;51.11
68189;DHT22;66299;47.514;19.218;2024-03-23T12:50:20;20.15;50.68
68189;DHT22;66299;47.514;19.218;2024-03-23T12:52:47;20.10;50.60
68189;DHT22;66299;47.514;19.218;2024-03-23T12:55:14;19.92;51.85
68189;DHT22;66299;47.514;19.218;2024-03-23T12:57:42;19.93;51.97
68189;DHT22;66299;47.514;19.218;2024-03-23T13:00:09;19.90;52.03
68189;DHT22;66299;47.514;19.218;2024-03-23T13:02:37;19.72;52.26
68189;DHT22;66299;47.514;19.218;2024-03-23T13:05:07;19.65;52.20
68189;DHT22;66299;47.514;19.218;2024-03-23T13:07:36;19.55;51.49
68189;DHT22;66299;47.514;19.218;2024-03-23T13:10:04;19.53;51.88
68189;DHT22;66299;47.514;19.218;2024-03-23T13:12:31;19.47;52.12
68189;DHT22;66299;47.514;19.218;2024-03-23T13:14:58;19.38;51.63
68189;DHT22;66299;47.514;19.218;2024-03-23T13:17:26;19.38;52.08
68189;DHT22;66299;47.514;19.218;2024-03-23T13:19:53;19.28;52.78
68189;DHT22;66299;47.514;19.218;2024-03-23T13:22:24;19.34;52.22
68189;DHT22;66299;47.514;19.218;2024-03-23T13:24:50;19.37;52.11
68189;DHT22;66299;47.514;19.218;2024-03-23T13:27:18;19.28;52.31
68189;DHT22;66299;47.514;19.218;2024-03-23T13:29:44;19.32;52.42
68189;DHT22;66299;47.514;19.218;2024-03-23T13:32:13;19.20;52.24
68189;DHT22;66299;47.514;19.218;2024-03-23T13:34:39;19.27;51.91
68189;DHT22;66299;47.514;19.218;2024-03-23T13:37:07;19.23;51.64
68189;DHT22;66299;47.514;19.218;2024-03-23T13:39:35;19.27;51.47
68189;DHT22;66299;47.514;19.218;2024-03-23T13:42:03;19.20;51.81
68189;DHT22;66299;47.514;19.218;2024-03-23T13:44:29;19.19;52.07
68189;DHT22;66299;47.514;19.218;2024-03-23T13:46:57;19.13;52.17
68189;DHT22;66299;47.514;19.218;2024-03-23T13:49:28;19.02;52.37
68189;DHT22;66299;47.514;19.218;2024-03-23T13:51:57;18.85;52.23
68189;DHT22;66299;47.514;19.218;2024-03-23T13:54:24;18.86;51.74
68189;DHT22;66299;47.514;19.218;2024-03-23T13:56:54;18.90;51.53
68189;DHT22;66299;47.514;19.218;2024-03-23T13:59:22;18.93;51.66
68189;DHT22;66299;47.514;19.218;2024-03-23T14:01:50;18.80;51.90
68189;DHT22;66299;47.514;19.218;2024-03-23T14:04:17;18.79;52.91
68189;DHT22;66299;47.514;19.218;2024-03-23T14:06:45;18.75;52.13
68189;DHT22;66299;47.514;19.218;2024-03-23T14:09:13;18.75;52.77
68189;DHT22;66299;47.514;19.218;2024-03-23T14:11:41;18.69;53.45
68189;DHT22;66299;47.514;19.218;2024-03-23T14:14:10;18.72;52.83
68189;DHT22;66299;47.514;19.218;2024-03-23T14:16:39;18.71;53.69
68189;DHT22;66299;47.514;19.218;2024-03-23T14:19:05;18.77;53.09
68189;DHT22;66299;47.514;19.218;2024-03-23T14:21:34;18.80;52.67
68189;DHT22;66299;47.514;19.218;2024-03-23T14:24:01;18.75;53.37
68189;DHT22;66299;47.514;19.218;2024-03-23T14:26:28;18.73;53.01
68189;DHT22;66299;47.514;19.218;2024-03-23T14:28:55;18.75;52.76
68189;DHT22;66299;47.514;19.218;2024-03-23T14:31:23;18.62;53.17
68189;DHT22;66299;47.514;19.218;2024-03-23T14:33:51;18.62;53.52
68189;DHT22;66299;47.514;19.218;2024-03-23T14:36:18;18.66;53.35
68189;DHT22;66299;47.514;19.218;2024-03-23T14:38:47;18.69;53.18
68189;DHT22;66299;47.514;19.218;2024-03-23T14:41:14;18.65;53.49
68189;DHT22;66299;47.514;19.218;2024-03-23T14:43:41;18.79;52.98
68189;DHT22;66299;47.514;19.218;2024-03-23T14:46:10;18.61;54.49
68189;DHT22;66299;47.514;19.218;2024-03-23T14:48:40;18.65;54.91
68189;DHT22;66299;47.514;19.218;2024-03-23T14:51:09;18.55;54.97
68189;DHT22;66299;47.514;19.218;2024-03-23T14:53:37;18.55;54.42
68189;DHT22;66299;47.514;19.218;2024-03-23T14:56:08;18.58;53.86
68189;DHT22;66299;47.514;19.218;2024-03-23T14:58:36;18.38;54.45
68189;DHT22;66299;47.514;19.218;2024-03-23T15:01:04;18.42;54.16
68189;DHT22;66299;47.514;19.218;2024-03-23T15:03:33;18.40;53.89
68189;DHT22;66299;47.514;19.218;2024-03-23T15:06:02;18.41;54.21
68189;DHT22;66299;47.514;19.218;2024-03-23T15:08:28;18.38;54.23
68189;DHT22;66299;47.514;19.218;2024-03-23T15:10:59;18.30;54.80
68189;DHT22;66299;47.514;19.218;2024-03-23T15:13:25;18.20;54.88
68189;DHT22;66299;47.514;19.218;2024-03-23T15:15:53;18.18;54.96
68189;DHT22;66299;47.514;19.218;2024-03-23T15:18:19;18.30;54.24
68189;DHT22;66299;47.514;19.218;2024-03-23T15:20:52;18.21;54.64
68189;DHT22;66299;47.514;19.218;2024-03-23T15:23:21;18.27;54.20
68189;DHT22;66299;47.514;19.218;2024-03-23T15:25:54;18.27;54.37
68189;DHT22;66299;47.514;19.218;2024-03-23T15:28:20;18.18;54.71
68189;DHT22;66299;47.514;19.218;2024-03-23T15:30:48;18.23;54.41
68189;DHT22;66299;47.514;19.218;2024-03-23T15:33:14;18.28;54.47
68189;DHT22;66299;47.514;19.218;2024-03-23T15:35:42;18.21;55.06
68189;DHT22;66299;47.514;19.218;2024-03-23T15:38:08;18.13;55.40
68189;DHT22;66299;47.514;19.218;2024-03-23T15:40:37;18.15;55.85
68189;DHT22;66299;47.514;19.218;2024-03-23T15:43:04;18.23;55.19
68189;DHT22;66299;47.514;19.218;2024-03-23T15:45:31;18.21;55.21
68189;DHT22;66299;47.514;19.218;2024-03-23T15:47:59;18.17;55.61
68189;DHT22;66299;47.514;19.218;2024-03-23T15:50:28;18.13;55.81
68189;DHT22;66299;47.514;19.218;2024-03-23T15:52:54;18.07;56.12
68189;DHT22;66299;47.514;19.218;2024-03-23T15:55:22;17.90;56.55
68189;DHT22;66299;47.514;19.218;2024-03-23T15:57:49;17.97;55.90
68189;DHT22;66299;47.514;19.218;2024-03-23T16:00:18;17.79;57.09
68189;DHT22;66299;47.514;19.218;2024-03-23T16:02:45;17.91;56.15
68189;DHT22;66299;47.514;19.218;2024-03-23T16:05:13;17.87;56.00
68189;DHT22;66299;47.514;19.218;2024-03-23T16:07:39;17.86;56.42
68189;DHT22;66299;47.514;19.218;2024-03-23T16:10:09;17.75;56.75
68189;DHT22;66299;47.514;19.218;2024-03-23T16:12:36;17.53;58.13
68189;DHT22;66299;47.514;19.218;2024-03-23T16:15:07;17.67;57.39
68189;DHT22;66299;47.514;19.218;2024-03-23T16:17:35;17.63;57.79
68189;DHT22;66299;47.514;19.218;2024-03-23T16:20:03;17.55;58.26
68189;DHT22;66299;47.514;19.218;2024-03-23T16:22:30;17.57;58.15